createdAt,value
2023-05-05T00:01:08.833Z,14.96
2023-05-05T00:03:35.685Z,14.96
2023-05-05T00:06:03.224Z,14.95
2023-05-05T00:08:30.092Z,14.91
2023-05-05T00:10:57.680Z,14.81
2023-05-05T00:13:24.566Z,14.71
2023-05-05T00:15:53.523Z,14.70
2023-05-05T00:18:21.339Z,14.74
2023-05-05T00:20:48.564Z,14.74
2023-05-05T00:23:16.547Z,14.77
2023-05-05T00:25:43.176Z,14.78
2023-05-05T00:28:09.934Z,14.82
2023-05-05T00:30:37.578Z,14.82
2023-05-05T00:33:04.426Z,14.83
2023-05-05T00:35:31.151Z,14.83
2023-05-05T00:37:58.229Z,14.84
2023-05-05T00:40:25.354Z,14.83
2023-05-05T00:42:52.262Z,14.83
2023-05-05T00:45:20.071Z,14.79
2023-05-05T00:47:51.448Z,14.76
2023-05-05T00:50:23.884Z,14.73
2023-05-05T00:52:52.692Z,14.70
2023-05-05T00:55:19.339Z,14.69
2023-05-05T00:57:46.677Z,14.69
2023-05-05T01:00:13.503Z,14.71
2023-05-05T01:02:41.374Z,14.71
2023-05-05T01:05:09.635Z,14.72
2023-05-05T01:07:59.462Z,14.77
2023-05-05T01:10:32.283Z,14.77
2023-05-05T01:13:20.630Z,14.79
2023-05-05T01:15:57.513Z,14.83
2023-05-05T01:18:29.396Z,14.88
2023-05-05T01:21:16.309Z,14.90
2023-05-05T01:23:42.810Z,14.91
2023-05-05T01:26:34.792Z,14.96
2023-05-05T01:29:32.414Z,15.03
2023-05-05T01:32:06.436Z,15.05
2023-05-05T01:34:40.198Z,15.09
2023-05-05T01:37:22.360Z,15.13
2023-05-05T01:39:57.777Z,15.15
2023-05-05T01:42:27.104Z,15.17
2023-05-05T01:44:54.601Z,15.19
2023-05-05T01:47:23.190Z,15.20
2023-05-05T01:49:50.455Z,15.22
2023-05-05T01:52:17.913Z,15.23
2023-05-05T01:54:45.699Z,15.22
2023-05-05T01:57:13.698Z,15.25
2023-05-05T01:59:40.507Z,15.27
2023-05-05T02:02:10.229Z,15.26
2023-05-05T02:04:42.472Z,15.25
2023-05-05T02:07:12.715Z,15.27
2023-05-05T02:09:40.744Z,15.28
2023-05-05T02:12:08.354Z,15.29
2023-05-05T02:14:36.296Z,15.30
2023-05-05T02:17:04.074Z,15.28
2023-05-05T02:19:34.677Z,15.28
2023-05-05T02:22:01.224Z,15.28
2023-05-05T02:24:27.887Z,15.31
2023-05-05T02:26:56.878Z,15.26
2023-05-05T02:29:32.705Z,15.25
2023-05-05T02:32:06.994Z,15.23
2023-05-05T02:34:38.373Z,15.20
2023-05-05T02:37:07.681Z,15.18
2023-05-05T02:39:47.654Z,15.13
2023-05-05T02:42:18.460Z,15.06
2023-05-05T02:44:46.265Z,14.99
2023-05-05T02:47:12.774Z,14.92
2023-05-05T02:49:39.302Z,14.85
2023-05-05T02:52:05.979Z,14.77
2023-05-05T02:54:33.571Z,14.69
2023-05-05T02:57:00.735Z,14.62
2023-05-05T02:59:38.153Z,14.57
2023-05-05T03:02:13.413Z,14.49
2023-05-05T03:04:51.797Z,14.42
2023-05-05T03:07:41.013Z,14.35
2023-05-05T03:10:12.051Z,14.27
2023-05-05T03:13:01.382Z,14.21
2023-05-05T03:15:35.980Z,14.15
2023-05-05T03:18:03.983Z,14.11
2023-05-05T03:20:31.196Z,14.06
2023-05-05T03:22:57.810Z,13.99
2023-05-05T03:25:41.973Z,13.94
2023-05-05T03:28:08.454Z,13.88
2023-05-05T03:30:34.938Z,13.82
2023-05-05T03:33:01.446Z,13.77
2023-05-05T03:35:28.106Z,13.73
2023-05-05T03:37:55.760Z,13.73
2023-05-05T03:40:36.400Z,13.71
2023-05-05T03:43:09.928Z,13.66
2023-05-05T03:45:36.472Z,13.65
2023-05-05T03:48:03.139Z,13.62
2023-05-05T03:50:29.651Z,13.60
2023-05-05T03:52:56.165Z,13.58
2023-05-05T03:55:22.753Z,13.54
2023-05-05T03:57:49.211Z,13.52
2023-05-05T04:00:16.022Z,13.49
2023-05-05T04:02:43.673Z,13.49
2023-05-05T04:05:10.350Z,13.51
2023-05-05T04:07:36.831Z,13.51
2023-05-05T04:10:03.648Z,13.56
2023-05-05T04:12:30.220Z,13.54
2023-05-05T04:14:56.809Z,13.54
2023-05-05T04:17:23.235Z,13.54
2023-05-05T04:19:49.781Z,13.53
2023-05-05T04:22:16.830Z,13.51
2023-05-05T04:24:43.309Z,13.50
2023-05-05T04:27:09.747Z,13.51
2023-05-05T04:29:36.171Z,13.52
2023-05-05T04:32:02.582Z,13.50
2023-05-05T04:34:29.189Z,13.49
2023-05-05T04:36:55.713Z,13.48
2023-05-05T04:39:22.276Z,13.49
2023-05-05T04:41:48.955Z,13.47
2023-05-05T04:44:15.828Z,13.46
2023-05-05T04:46:42.335Z,13.45
2023-05-05T04:49:09.287Z,13.46
2023-05-05T04:51:35.868Z,13.45
2023-05-05T04:54:02.367Z,13.47
2023-05-05T04:56:31.327Z,13.50
2023-05-05T04:58:57.760Z,13.53
2023-05-05T05:01:24.231Z,13.51
2023-05-05T05:03:51.162Z,13.52
2023-05-05T05:06:17.624Z,13.55
2023-05-05T05:08:44.113Z,13.55
2023-05-05T05:11:10.758Z,13.58
2023-05-05T05:13:37.259Z,13.58
2023-05-05T05:16:03.835Z,13.62
2023-05-05T05:18:30.255Z,13.64
2023-05-05T05:20:56.759Z,13.66
2023-05-05T05:23:23.250Z,13.67
2023-05-05T05:25:49.934Z,13.69
2023-05-05T05:28:16.459Z,13.72
2023-05-05T05:30:42.994Z,13.76
2023-05-05T05:33:09.486Z,13.81
2023-05-05T05:35:36.150Z,13.85
2023-05-05T05:38:02.591Z,13.89
2023-05-05T05:40:29.052Z,13.92
2023-05-05T05:42:56.096Z,13.95
2023-05-05T05:45:22.592Z,14.01
2023-05-05T05:47:49.480Z,14.05
2023-05-05T05:50:15.939Z,14.12
2023-05-05T05:52:42.573Z,14.19
2023-05-05T05:55:09.537Z,14.23
2023-05-05T05:57:36.000Z,14.29
2023-05-05T06:00:02.619Z,14.37
2023-05-05T06:02:29.402Z,14.42
2023-05-05T06:04:56.089Z,14.43
2023-05-05T06:07:22.598Z,14.46
2023-05-05T06:09:49.062Z,14.52
2023-05-05T06:12:15.626Z,14.58
2023-05-05T06:14:42.215Z,14.65
2023-05-05T06:17:08.716Z,14.72
2023-05-05T06:19:36.877Z,14.81
2023-05-05T06:22:03.371Z,14.86
2023-05-05T06:24:31.960Z,14.98
2023-05-05T06:27:02.301Z,15.07
2023-05-05T06:29:28.798Z,15.13
2023-05-05T06:31:55.747Z,15.20
2023-05-05T06:34:22.243Z,15.29
2023-05-05T06:36:48.838Z,15.34
2023-05-05T06:39:16.190Z,15.39
2023-05-05T06:41:42.828Z,15.45
2023-05-05T06:44:10.580Z,15.55
2023-05-05T06:46:37.340Z,15.61
2023-05-05T06:49:03.830Z,15.64
2023-05-05T06:51:31.301Z,15.70
2023-05-05T06:53:57.821Z,15.79
2023-05-05T06:56:24.423Z,15.86
2023-05-05T06:58:50.934Z,15.99
2023-05-05T07:01:17.554Z,16.06
2023-05-05T07:03:44.785Z,16.13
2023-05-05T07:06:11.410Z,16.17
2023-05-05T07:08:37.961Z,16.21
2023-05-05T07:11:04.551Z,16.29
2023-05-05T07:13:31.216Z,16.37
2023-05-05T07:15:57.787Z,16.47
2023-05-05T07:18:24.296Z,16.44
2023-05-05T07:20:50.898Z,16.39
2023-05-05T07:23:17.362Z,16.41
2023-05-05T07:25:44.104Z,16.33
2023-05-05T07:28:11.318Z,16.29
2023-05-05T07:30:37.780Z,16.16
2023-05-05T07:33:04.318Z,16.15
2023-05-05T07:35:30.943Z,16.32
2023-05-05T07:37:57.388Z,16.47
2023-05-05T07:40:23.865Z,16.56
2023-05-05T07:42:50.461Z,16.66
2023-05-05T07:45:17.023Z,16.74
2023-05-05T07:47:43.757Z,16.80
2023-05-05T07:50:10.783Z,16.87
2023-05-05T07:52:46.100Z,16.93
2023-05-05T07:55:16.488Z,16.97
2023-05-05T07:57:42.997Z,16.96
2023-05-05T08:00:10.871Z,16.85
2023-05-05T08:02:37.561Z,16.94
2023-05-05T08:05:04.680Z,17.07
2023-05-05T08:07:31.250Z,17.11
2023-05-05T08:09:57.768Z,17.14
2023-05-05T08:12:24.872Z,17.15
2023-05-05T08:14:51.595Z,17.28
2023-05-05T08:17:18.460Z,17.43
2023-05-05T08:19:44.886Z,17.67
2023-05-05T08:22:11.416Z,17.88
2023-05-05T08:24:37.834Z,18.03
2023-05-05T08:27:04.313Z,18.20
2023-05-05T08:29:30.913Z,18.21
2023-05-05T08:31:57.474Z,18.25
2023-05-05T08:34:24.122Z,18.51
2023-05-05T08:36:51.059Z,18.65
2023-05-05T08:39:17.586Z,18.61
2023-05-05T08:41:45.331Z,18.52
2023-05-05T08:44:11.991Z,18.36
2023-05-05T08:46:39.085Z,18.33
2023-05-05T08:49:08.890Z,18.39
2023-05-05T08:51:43.143Z,18.46
2023-05-05T08:54:15.229Z,18.71
2023-05-05T08:56:42.648Z,18.87
2023-05-05T08:59:11.916Z,18.83
2023-05-05T09:01:39.387Z,18.78
2023-05-05T09:04:07.756Z,18.76
2023-05-05T09:06:35.600Z,18.85
2023-05-05T09:09:02.083Z,18.97
2023-05-05T09:11:28.599Z,19.05
2023-05-05T09:13:55.850Z,19.05
2023-05-05T09:16:22.646Z,18.97
2023-05-05T09:18:49.241Z,18.95
2023-05-05T09:21:22.678Z,18.91
2023-05-05T09:24:18.789Z,18.93
2023-05-05T09:26:46.855Z,18.92
2023-05-05T09:29:21.545Z,18.94
2023-05-05T09:32:11.183Z,19.15
2023-05-05T09:34:38.087Z,19.35
2023-05-05T09:37:05.877Z,19.45
2023-05-05T09:39:32.451Z,19.51
2023-05-05T09:41:58.940Z,19.45
2023-05-05T09:44:36.296Z,19.34
2023-05-05T09:47:05.406Z,19.30
2023-05-05T09:49:38.399Z,19.19
2023-05-05T09:52:17.709Z,19.10
2023-05-05T09:54:44.272Z,18.94
2023-05-05T09:57:29.446Z,18.90
2023-05-05T09:59:58.061Z,18.93
2023-05-05T10:02:35.498Z,18.99
2023-05-05T10:05:11.377Z,19.01
2023-05-05T10:07:39.485Z,19.01
2023-05-05T10:10:08.443Z,19.04
2023-05-05T10:12:36.919Z,19.10
2023-05-05T10:15:05.292Z,19.06
2023-05-05T10:17:35.773Z,18.88
2023-05-05T10:20:04.134Z,18.37
2023-05-05T10:22:35.055Z,17.78
2023-05-05T10:25:10.854Z,17.14
2023-05-05T10:27:51.327Z,16.09
2023-05-05T10:30:24.002Z,15.31
2023-05-05T10:33:05.039Z,14.81
2023-05-05T10:35:43.550Z,14.46
2023-05-05T10:38:12.632Z,14.40
2023-05-05T10:40:46.524Z,14.47
2023-05-05T10:43:14.462Z,14.56
2023-05-05T10:45:42.863Z,14.59
2023-05-05T10:48:14.734Z,14.64
2023-05-05T10:50:56.571Z,14.56
2023-05-05T10:53:32.654Z,14.52
2023-05-05T10:56:09.357Z,14.48
2023-05-05T10:58:47.017Z,14.48
2023-05-05T11:01:40.504Z,14.44
2023-05-05T11:04:20.628Z,14.47
2023-05-05T11:07:14.958Z,14.45
2023-05-05T11:10:01.228Z,14.40
2023-05-05T11:12:29.514Z,14.34
2023-05-05T11:15:21.834Z,14.30
2023-05-05T11:17:48.619Z,14.28
2023-05-05T11:20:15.361Z,14.25
2023-05-05T11:23:03.595Z,14.27
2023-05-05T11:25:36.562Z,14.28
2023-05-05T11:28:12.701Z,14.27
2023-05-05T11:30:58.548Z,14.30
2023-05-05T11:33:36.074Z,14.32
2023-05-05T11:36:06.647Z,14.35
2023-05-05T11:39:12.797Z,14.37
2023-05-05T11:41:53.954Z,14.43
2023-05-05T11:44:30.197Z,14.46
2023-05-05T11:47:02.901Z,14.48
2023-05-05T11:49:37.138Z,14.46
2023-05-05T11:52:06.108Z,14.45
2023-05-05T11:54:34.416Z,14.45
2023-05-05T11:57:08.919Z,14.44
2023-05-05T11:59:37.349Z,14.43
2023-05-05T12:02:04.716Z,14.44
2023-05-05T12:04:31.790Z,14.44
2023-05-05T12:06:59.354Z,14.45
2023-05-05T12:09:26.959Z,14.48
2023-05-05T12:11:58.408Z,14.49
2023-05-05T12:14:25.694Z,14.52
2023-05-05T12:17:08.522Z,14.53
2023-05-05T12:19:36.156Z,14.56
2023-05-05T12:22:04.867Z,14.61
2023-05-05T12:24:31.556Z,14.64
2023-05-05T12:27:08.465Z,14.68
2023-05-05T12:29:34.869Z,14.70
2023-05-05T12:32:01.398Z,14.70
2023-05-05T12:34:28.153Z,14.64
2023-05-05T12:36:54.866Z,14.61
2023-05-05T12:39:21.592Z,14.62
2023-05-05T12:41:48.121Z,14.66
2023-05-05T12:44:14.568Z,14.70
2023-05-05T12:46:48.523Z,14.72
2023-05-05T12:49:15.387Z,14.70
2023-05-05T12:51:56.396Z,14.71
2023-05-05T12:54:25.078Z,14.73
2023-05-05T12:56:51.689Z,14.78
2023-05-05T12:59:21.185Z,14.85
2023-05-05T13:01:53.937Z,14.90
2023-05-05T13:04:22.902Z,14.92
2023-05-05T13:06:53.049Z,14.94
2023-05-05T13:09:25.748Z,14.98
2023-05-05T13:11:54.440Z,15.01
2023-05-05T13:14:21.554Z,15.05
2023-05-05T13:16:48.153Z,15.04
2023-05-05T13:19:14.726Z,15.08
2023-05-05T13:21:41.797Z,15.09
2023-05-05T13:24:23.688Z,15.03
2023-05-05T13:26:55.792Z,15.00
2023-05-05T13:29:23.587Z,14.89
2023-05-05T13:31:52.750Z,14.89
2023-05-05T13:34:19.215Z,14.88
2023-05-05T13:36:45.902Z,14.90
2023-05-05T13:39:12.671Z,14.97
2023-05-05T13:41:40.496Z,15.01
2023-05-05T13:44:06.937Z,14.98
2023-05-05T13:46:33.415Z,14.92
2023-05-05T13:49:00.353Z,14.88
2023-05-05T13:51:26.880Z,14.86
2023-05-05T13:53:53.370Z,14.75
2023-05-05T13:56:19.923Z,14.72
2023-05-05T13:58:46.396Z,14.72
2023-05-05T14:01:12.901Z,14.66
2023-05-05T14:03:39.801Z,14.63
2023-05-05T14:06:07.485Z,14.59
2023-05-05T14:08:34.070Z,14.58
2023-05-05T14:11:00.544Z,14.55
2023-05-05T14:13:26.979Z,14.59
2023-05-05T14:15:53.829Z,14.64
2023-05-05T14:18:20.819Z,14.66
2023-05-05T14:20:47.262Z,14.67
2023-05-05T14:23:13.704Z,14.77
2023-05-05T14:25:40.312Z,14.85
2023-05-05T14:28:07.334Z,14.86
2023-05-05T14:30:33.749Z,14.82
2023-05-05T14:33:01.226Z,14.80
2023-05-05T14:35:27.897Z,14.88
2023-05-05T14:37:54.372Z,14.88
2023-05-05T14:40:20.907Z,14.84
2023-05-05T14:42:47.315Z,14.72
2023-05-05T14:45:13.720Z,14.65
2023-05-05T14:47:40.377Z,14.61
2023-05-05T14:50:09.661Z,14.54
2023-05-05T14:52:39.064Z,14.56
2023-05-05T14:55:06.846Z,15.02
2023-05-05T14:57:33.526Z,15.69
2023-05-05T14:59:59.925Z,16.05
2023-05-05T15:02:26.568Z,16.27
2023-05-05T15:04:53.141Z,16.36
2023-05-05T15:07:20.525Z,16.35
2023-05-05T15:09:47.022Z,16.31
2023-05-05T15:12:13.603Z,16.28
2023-05-05T15:14:40.803Z,16.29
2023-05-05T15:17:07.363Z,16.23
2023-05-05T15:19:33.800Z,16.07
2023-05-05T15:22:00.272Z,15.90
2023-05-05T15:24:26.778Z,15.76
2023-05-05T15:26:53.292Z,15.70
2023-05-05T15:29:19.866Z,15.68
2023-05-05T15:31:46.338Z,15.80
2023-05-05T15:34:12.833Z,15.94
2023-05-05T15:36:39.294Z,16.05
2023-05-05T15:39:05.782Z,16.21
2023-05-05T15:41:34.337Z,16.42
2023-05-05T15:44:02.109Z,16.63
2023-05-05T15:46:32.774Z,16.63
2023-05-05T15:48:59.444Z,16.64
2023-05-05T15:51:26.247Z,16.56
2023-05-05T15:53:53.338Z,16.52
2023-05-05T15:56:19.866Z,16.40
2023-05-05T15:58:46.420Z,16.27
2023-05-05T16:01:12.961Z,16.16
2023-05-05T16:03:39.453Z,16.09
2023-05-05T16:06:06.284Z,16.09
2023-05-05T16:08:32.826Z,16.17
2023-05-05T16:10:59.272Z,16.19
2023-05-05T16:13:25.692Z,16.23
2023-05-05T16:15:52.136Z,16.41
2023-05-05T16:18:18.545Z,16.58
2023-05-05T16:20:45.184Z,16.77
2023-05-05T16:23:11.668Z,16.86
2023-05-05T16:25:38.177Z,17.01
2023-05-05T16:28:04.791Z,17.06
2023-05-05T16:30:31.252Z,17.05
2023-05-05T16:32:57.786Z,17.03
2023-05-05T16:35:24.334Z,17.15
2023-05-05T16:37:50.833Z,17.13
2023-05-05T16:40:17.410Z,17.20
2023-05-05T16:42:44.458Z,17.35
2023-05-05T16:45:11.523Z,17.39
2023-05-05T16:47:38.356Z,17.44
2023-05-05T16:50:05.433Z,17.41
2023-05-05T16:52:31.887Z,17.35
2023-05-05T16:54:58.384Z,17.32
2023-05-05T16:57:25.006Z,17.30
2023-05-05T16:59:54.393Z,17.21
2023-05-05T17:02:20.822Z,17.12
2023-05-05T17:04:47.570Z,17.09
2023-05-05T17:07:14.046Z,17.04
2023-05-05T17:09:40.480Z,16.99
2023-05-05T17:12:07.151Z,16.98
2023-05-05T17:14:33.723Z,16.94
2023-05-05T17:17:00.272Z,16.80
2023-05-05T17:19:26.838Z,16.78
2023-05-05T17:21:54.233Z,16.74
2023-05-05T17:24:20.878Z,16.68
2023-05-05T17:26:47.654Z,16.62
2023-05-05T17:29:15.241Z,16.57
2023-05-05T17:31:41.973Z,16.58
2023-05-05T17:34:08.515Z,16.60
2023-05-05T17:36:35.444Z,16.55
2023-05-05T17:39:02.006Z,16.47
2023-05-05T17:41:28.471Z,16.35
2023-05-05T17:43:55.692Z,16.27
2023-05-05T17:46:22.292Z,16.21
2023-05-05T17:48:48.922Z,16.11
2023-05-05T17:51:15.424Z,16.18
2023-05-05T17:53:41.850Z,16.28
2023-05-05T17:56:09.096Z,16.38
2023-05-05T17:58:35.792Z,16.42
2023-05-05T18:01:02.317Z,16.39
2023-05-05T18:03:29.251Z,16.28
2023-05-05T18:05:56.055Z,16.31
2023-05-05T18:08:22.504Z,16.31
2023-05-05T18:10:49.061Z,16.34
2023-05-05T18:13:15.845Z,16.39
2023-05-05T18:15:42.376Z,16.43
2023-05-05T18:18:08.888Z,16.38
2023-05-05T18:20:35.354Z,16.41
2023-05-05T18:23:01.887Z,16.42
2023-05-05T18:25:28.463Z,16.40
2023-05-05T18:27:54.917Z,16.30
2023-05-05T18:30:21.427Z,16.07
2023-05-05T18:32:48.811Z,15.83
2023-05-05T18:35:15.501Z,15.64
2023-05-05T18:37:42.258Z,15.50
2023-05-05T18:40:10.121Z,15.45
2023-05-05T18:42:36.635Z,15.38
2023-05-05T18:45:03.273Z,15.15
2023-05-05T18:47:29.778Z,15.03
2023-05-05T18:49:56.313Z,15.00
2023-05-05T18:52:22.919Z,14.93
2023-05-05T18:54:49.393Z,14.86
2023-05-05T18:57:15.861Z,14.80
2023-05-05T18:59:42.349Z,14.77
2023-05-05T19:02:08.800Z,14.70
2023-05-05T19:04:37.842Z,14.52
2023-05-05T19:07:04.773Z,14.41
2023-05-05T19:09:31.282Z,14.32
2023-05-05T19:11:57.733Z,14.16
2023-05-05T19:14:24.518Z,14.02
2023-05-05T19:16:51.370Z,13.99
2023-05-05T19:19:18.246Z,13.99
2023-05-05T19:21:44.699Z,13.96
2023-05-05T19:24:11.651Z,13.92
2023-05-05T19:26:38.407Z,13.85
2023-05-05T19:29:04.888Z,13.79
2023-05-05T19:31:31.565Z,13.65
2023-05-05T19:34:00.932Z,13.53
2023-05-05T19:36:31.594Z,13.45
2023-05-05T19:39:03.863Z,13.35
2023-05-05T19:41:31.250Z,13.34
2023-05-05T19:43:57.760Z,13.29
2023-05-05T19:46:27.390Z,13.25
2023-05-05T19:48:53.953Z,13.19
2023-05-05T19:51:20.678Z,13.16
2023-05-05T19:53:47.171Z,13.18
2023-05-05T19:56:13.695Z,13.19
2023-05-05T19:58:54.556Z,13.17
2023-05-05T20:01:21.229Z,13.15
2023-05-05T20:03:47.966Z,13.07
2023-05-05T20:06:14.483Z,12.97
2023-05-05T20:08:40.996Z,12.91
2023-05-05T20:11:07.472Z,12.84
2023-05-05T20:13:34.371Z,12.81
2023-05-05T20:16:01.033Z,12.75
2023-05-05T20:18:27.611Z,12.70
2023-05-05T20:20:54.233Z,12.69
2023-05-05T20:23:20.876Z,12.65
2023-05-05T20:25:47.395Z,12.63
2023-05-05T20:28:13.858Z,12.63
2023-05-05T20:30:40.535Z,12.58
2023-05-05T20:33:06.993Z,12.53
2023-05-05T20:35:33.455Z,12.45
2023-05-05T20:37:59.969Z,12.39
2023-05-05T20:40:26.674Z,12.29
2023-05-05T20:42:53.104Z,12.22
2023-05-05T20:45:19.594Z,12.21
2023-05-05T20:47:46.191Z,12.17
2023-05-05T20:50:12.889Z,12.14
2023-05-05T20:52:39.510Z,12.11
2023-05-05T20:55:06.597Z,12.08
2023-05-05T20:57:33.900Z,12.07
2023-05-05T21:00:00.427Z,11.99
2023-05-05T21:02:26.956Z,11.95
2023-05-05T21:04:53.465Z,11.91
2023-05-05T21:07:20.013Z,11.91
2023-05-05T21:09:46.966Z,11.88
2023-05-05T21:12:13.438Z,11.84
2023-05-05T21:14:44.578Z,11.85
2023-05-05T21:17:11.049Z,11.79
2023-05-05T21:19:37.571Z,11.74
2023-05-05T21:22:04.403Z,11.70
2023-05-05T21:24:31.136Z,11.69
2023-05-05T21:26:57.589Z,11.65
2023-05-05T21:29:27.210Z,11.66
2023-05-05T21:31:53.708Z,11.69
2023-05-05T21:34:20.242Z,11.70
2023-05-05T21:36:46.632Z,11.64
2023-05-05T21:39:13.096Z,11.64
2023-05-05T21:41:39.496Z,11.66
2023-05-05T21:44:05.943Z,11.67
2023-05-05T21:46:32.361Z,11.65
2023-05-05T21:48:58.849Z,11.63
2023-05-05T21:51:25.460Z,11.57
2023-05-05T21:53:51.979Z,11.56
2023-05-05T21:56:18.485Z,11.55
2023-05-05T21:58:44.967Z,11.54
2023-05-05T22:01:12.036Z,11.52
2023-05-05T22:03:38.661Z,11.45
2023-05-05T22:06:05.483Z,11.42
2023-05-05T22:08:32.005Z,11.39
2023-05-05T22:10:58.397Z,11.40
2023-05-05T22:13:24.925Z,11.39
2023-05-05T22:15:51.597Z,11.37
2023-05-05T22:18:18.059Z,11.34
2023-05-05T22:20:44.588Z,11.28
2023-05-05T22:23:11.133Z,11.22
2023-05-05T22:25:37.593Z,11.25
2023-05-05T22:28:04.327Z,11.28
2023-05-05T22:30:31.119Z,11.32
2023-05-05T22:32:57.655Z,11.36
2023-05-05T22:35:24.421Z,11.42
2023-05-05T22:37:50.944Z,11.44
2023-05-05T22:40:17.434Z,11.45
2023-05-05T22:42:44.014Z,11.45
2023-05-05T22:45:11.199Z,11.37
2023-05-05T22:47:37.878Z,11.30
2023-05-05T22:50:04.571Z,11.23
2023-05-05T22:52:31.083Z,11.15
2023-05-05T22:54:57.553Z,11.06
2023-05-05T22:57:24.310Z,11.02
2023-05-05T22:59:51.052Z,11.07
2023-05-05T23:02:17.498Z,11.15
2023-05-05T23:04:44.896Z,11.15
2023-05-05T23:07:12.886Z,11.08
2023-05-05T23:09:40.698Z,11.09
2023-05-05T23:12:07.304Z,11.12
2023-05-05T23:14:33.959Z,11.18
2023-05-05T23:17:00.853Z,11.19
2023-05-05T23:19:29.087Z,11.19
2023-05-05T23:21:55.714Z,11.14
2023-05-05T23:24:22.272Z,11.09
2023-05-05T23:26:48.722Z,11.12
2023-05-05T23:29:15.197Z,11.10
2023-05-05T23:31:41.703Z,11.06
2023-05-05T23:34:08.503Z,10.98
2023-05-05T23:36:35.116Z,10.95
2023-05-05T23:39:01.536Z,10.90
2023-05-05T23:41:28.040Z,10.86
2023-05-05T23:43:54.530Z,10.86
2023-05-05T23:46:20.991Z,10.87
2023-05-05T23:48:47.388Z,10.94
2023-05-05T23:51:13.877Z,11.00
2023-05-05T23:53:40.378Z,11.08
2023-05-05T23:56:07.776Z,11.09
2023-05-05T23:58:34.279Z,11.08
